sensor_id;sensor_type;location;lat;lon;timestamp;P1;durP1;ratioP1;P2;durP2;ratioP2
52025;SDS011;38041;40.058;18.328;2022-11-03T00:01:39;37.50;;;24.00;;
52025;SDS011;38041;40.058;18.328;2022-11-03T00:04:08;37.13;;;23.23;;
52025;SDS011;38041;40.058;18.328;2022-11-03T00:06:37;36.77;;;22.83;;
52025;SDS011;38041;40.058;18.328;2022-11-03T00:09:06;29.53;;;20.33;;
52025;SDS011;38041;40.058;18.328;2022-11-03T00:11:34;30.90;;;19.57;;
52025;SDS011;38041;40.058;18.328;2022-11-03T00:14:03;31.80;;;18.67;;
52025;SDS011;38041;40.058;18.328;2022-11-03T00:16:30;30.80;;;19.07;;
52025;SDS011;38041;40.058;18.328;2022-11-03T00:18:59;36.93;;;19.10;;
52025;SDS011;38041;40.058;18.328;2022-11-03T00:21:26;35.23;;;21.87;;
52025;SDS011;38041;40.058;18.328;2022-11-03T00:23:54;33.73;;;21.73;;
52025;SDS011;38041;40.058;18.328;2022-11-03T00:26:26;40.53;;;23.60;;
52025;SDS011;38041;40.058;18.328;2022-11-03T00:28:58;35.87;;;22.40;;
52025;SDS011;38041;40.058;18.328;2022-11-03T00:31:29;39.42;;;24.20;;
52025;SDS011;38041;40.058;18.328;2022-11-03T00:33:57;38.67;;;26.97;;
52025;SDS011;38041;40.058;18.328;2022-11-03T00:36:26;37.07;;;25.90;;
52025;SDS011;38041;40.058;18.328;2022-11-03T00:38:54;42.00;;;27.03;;
52025;SDS011;38041;40.058;18.328;2022-11-03T00:41:22;48.57;;;28.27;;
52025;SDS011;38041;40.058;18.328;2022-11-03T00:43:50;45.60;;;28.63;;
52025;SDS011;38041;40.058;18.328;2022-11-03T00:46:18;44.50;;;28.87;;
52025;SDS011;38041;40.058;18.328;2022-11-03T00:48:47;42.73;;;27.93;;
52025;SDS011;38041;40.058;18.328;2022-11-03T00:51:19;44.07;;;29.20;;
52025;SDS011;38041;40.058;18.328;2022-11-03T00:53:50;44.17;;;29.90;;
52025;SDS011;38041;40.058;18.328;2022-11-03T00:56:22;42.60;;;29.20;;
52025;SDS011;38041;40.058;18.328;2022-11-03T00:58:50;45.53;;;28.10;;
52025;SDS011;38041;40.058;18.328;2022-11-03T01:01:19;42.13;;;27.63;;
52025;SDS011;38041;40.058;18.328;2022-11-03T01:03:49;42.70;;;28.53;;
52025;SDS011;38041;40.058;18.328;2022-11-03T01:06:36;42.53;;;28.43;;
52025;SDS011;38041;40.058;18.328;2022-11-03T01:14:17;44.70;;;31.63;;
52025;SDS011;38041;40.058;18.328;2022-11-03T01:16:45;48.90;;;31.93;;
52025;SDS011;38041;40.058;18.328;2022-11-03T01:19:13;45.93;;;31.50;;
52025;SDS011;38041;40.058;18.328;2022-11-03T01:21:41;47.97;;;32.40;;
52025;SDS011;38041;40.058;18.328;2022-11-03T01:24:09;52.57;;;32.77;;
52025;SDS011;38041;40.058;18.328;2022-11-03T01:26:37;46.57;;;33.10;;
52025;SDS011;38041;40.058;18.328;2022-11-03T01:29:04;55.27;;;31.77;;
52025;SDS011;38041;40.058;18.328;2022-11-03T01:31:32;52.33;;;30.97;;
52025;SDS011;38041;40.058;18.328;2022-11-03T01:34:00;46.93;;;29.43;;
52025;SDS011;38041;40.058;18.328;2022-11-03T01:36:27;44.57;;;27.60;;
52025;SDS011;38041;40.058;18.328;2022-11-03T01:38:55;40.43;;;25.40;;
52025;SDS011;38041;40.058;18.328;2022-11-03T01:41:24;38.10;;;25.40;;
52025;SDS011;38041;40.058;18.328;2022-11-03T01:46:56;36.87;;;24.40;;
52025;SDS011;38041;40.058;18.328;2022-11-03T01:51:52;35.27;;;24.17;;
52025;SDS011;38041;40.058;18.328;2022-11-03T01:54:21;36.60;;;24.97;;
52025;SDS011;38041;40.058;18.328;2022-11-03T01:56:50;41.73;;;26.13;;
52025;SDS011;38041;40.058;18.328;2022-11-03T01:59:19;43.53;;;25.77;;
52025;SDS011;38041;40.058;18.328;2022-11-03T02:01:48;43.53;;;26.37;;
52025;SDS011;38041;40.058;18.328;2022-11-03T02:04:17;37.47;;;26.43;;
52025;SDS011;38041;40.058;18.328;2022-11-03T02:06:50;38.60;;;25.60;;
52025;SDS011;38041;40.058;18.328;2022-11-03T02:09:19;42.70;;;26.83;;
52025;SDS011;38041;40.058;18.328;2022-11-03T02:11:47;43.07;;;25.60;;
52025;SDS011;38041;40.058;18.328;2022-11-03T02:14:38;41.37;;;26.20;;
52025;SDS011;38041;40.058;18.328;2022-11-03T02:17:08;36.63;;;25.70;;
52025;SDS011;38041;40.058;18.328;2022-11-03T02:19:39;36.17;;;25.33;;
52025;SDS011;38041;40.058;18.328;2022-11-03T02:22:33;43.77;;;26.33;;
52025;SDS011;38041;40.058;18.328;2022-11-03T02:27:26;39.03;;;24.33;;
52025;SDS011;38041;40.058;18.328;2022-11-03T02:29:54;30.97;;;22.90;;
52025;SDS011;38041;40.058;18.328;2022-11-03T02:32:31;41.93;;;25.60;;
52025;SDS011;38041;40.058;18.328;2022-11-03T02:37:32;39.33;;;25.40;;
52025;SDS011;38041;40.058;18.328;2022-11-03T02:40:05;34.57;;;24.37;;
52025;SDS011;38041;40.058;18.328;2022-11-03T02:42:34;37.17;;;23.20;;
52025;SDS011;38041;40.058;18.328;2022-11-03T02:45:04;42.70;;;23.43;;
52025;SDS011;38041;40.058;18.328;2022-11-03T02:47:34;40.93;;;23.83;;
52025;SDS011;38041;40.058;18.328;2022-11-03T02:50:05;39.60;;;25.20;;
52025;SDS011;38041;40.058;18.328;2022-11-03T02:57:37;37.00;;;22.30;;
52025;SDS011;38041;40.058;18.328;2022-11-03T03:00:06;34.57;;;22.77;;
52025;SDS011;38041;40.058;18.328;2022-11-03T03:02:37;34.27;;;23.20;;
52025;SDS011;38041;40.058;18.328;2022-11-03T03:05:07;32.70;;;22.17;;
52025;SDS011;38041;40.058;18.328;2022-11-03T03:07:37;37.03;;;22.73;;
52025;SDS011;38041;40.058;18.328;2022-11-03T03:10:11;38.90;;;22.07;;
52025;SDS011;38041;40.058;18.328;2022-11-03T03:12:42;29.20;;;20.67;;
52025;SDS011;38041;40.058;18.328;2022-11-03T03:15:11;27.87;;;18.80;;
52025;SDS011;38041;40.058;18.328;2022-11-03T03:17:41;25.80;;;17.77;;
52025;SDS011;38041;40.058;18.328;2022-11-03T03:22:43;42.80;;;17.33;;
52025;SDS011;38041;40.058;18.328;2022-11-03T03:25:17;48.57;;;17.17;;
52025;SDS011;38041;40.058;18.328;2022-11-03T03:27:49;36.50;;;17.35;;
52025;SDS011;38041;40.058;18.328;2022-11-03T03:30:17;76.87;;;16.20;;
52025;SDS011;38041;40.058;18.328;2022-11-03T03:32:48;35.63;;;16.23;;
52025;SDS011;38041;40.058;18.328;2022-11-03T03:35:20;49.37;;;16.73;;
52025;SDS011;38041;40.058;18.328;2022-11-03T03:37:50;40.57;;;14.43;;
52025;SDS011;38041;40.058;18.328;2022-11-03T03:40:25;37.23;;;15.43;;
52025;SDS011;38041;40.058;18.328;2022-11-03T03:42:54;53.23;;;14.47;;
52025;SDS011;38041;40.058;18.328;2022-11-03T03:45:22;52.53;;;13.73;;
52025;SDS011;38041;40.058;18.328;2022-11-03T03:47:51;47.03;;;14.37;;
52025;SDS011;38041;40.058;18.328;2022-11-03T03:50:22;41.17;;;14.87;;
52025;SDS011;38041;40.058;18.328;2022-11-03T03:52:56;40.17;;;14.30;;
52025;SDS011;38041;40.058;18.328;2022-11-03T03:55:24;31.90;;;13.90;;
52025;SDS011;38041;40.058;18.328;2022-11-03T03:57:55;33.23;;;15.50;;
52025;SDS011;38041;40.058;18.328;2022-11-03T04:00:23;30.30;;;15.00;;
52025;SDS011;38041;40.058;18.328;2022-11-03T04:02:51;28.27;;;16.20;;
52025;SDS011;38041;40.058;18.328;2022-11-03T04:05:19;27.37;;;15.10;;
52025;SDS011;38041;40.058;18.328;2022-11-03T04:07:46;28.50;;;16.77;;
52025;SDS011;38041;40.058;18.328;2022-11-03T04:10:15;29.40;;;15.70;;
52025;SDS011;38041;40.058;18.328;2022-11-03T04:12:43;32.17;;;18.57;;
52025;SDS011;38041;40.058;18.328;2022-11-03T04:15:30;33.70;;;18.80;;
52025;SDS011;38041;40.058;18.328;2022-11-03T04:18:27;28.80;;;16.67;;
52025;SDS011;38041;40.058;18.328;2022-11-03T04:21:14;30.07;;;16.87;;
52025;SDS011;38041;40.058;18.328;2022-11-03T04:24:00;25.20;;;14.90;;
52025;SDS011;38041;40.058;18.328;2022-11-03T04:26:27;25.40;;;15.40;;
52025;SDS011;38041;40.058;18.328;2022-11-03T04:28:56;29.27;;;12.40;;
52025;SDS011;38041;40.058;18.328;2022-11-03T04:31:24;19.67;;;12.63;;
52025;SDS011;38041;40.058;18.328;2022-11-03T04:33:52;18.93;;;13.80;;
52025;SDS011;38041;40.058;18.328;2022-11-03T04:36:21;21.47;;;13.07;;
52025;SDS011;38041;40.058;18.328;2022-11-03T04:38:49;20.40;;;14.10;;
52025;SDS011;38041;40.058;18.328;2022-11-03T04:41:19;23.37;;;12.70;;
52025;SDS011;38041;40.058;18.328;2022-11-03T04:43:47;20.10;;;12.53;;
52025;SDS011;38041;40.058;18.328;2022-11-03T04:46:16;20.57;;;12.97;;
52025;SDS011;38041;40.058;18.328;2022-11-03T04:48:47;23.17;;;12.83;;
52025;SDS011;38041;40.058;18.328;2022-11-03T04:51:16;19.43;;;12.90;;
52025;SDS011;38041;40.058;18.328;2022-11-03T04:53:48;17.40;;;11.23;;
52025;SDS011;38041;40.058;18.328;2022-11-03T04:56:17;23.43;;;13.10;;
52025;SDS011;38041;40.058;18.328;2022-11-03T04:58:46;25.27;;;11.77;;
52025;SDS011;38041;40.058;18.328;2022-11-03T05:01:15;23.27;;;11.37;;
52025;SDS011;38041;40.058;18.328;2022-11-03T05:03:48;27.73;;;12.00;;
52025;SDS011;38041;40.058;18.328;2022-11-03T05:06:21;25.67;;;11.27;;
52025;SDS011;38041;40.058;18.328;2022-11-03T05:08:53;33.27;;;12.53;;
52025;SDS011;38041;40.058;18.328;2022-11-03T05:13:56;30.77;;;13.10;;
52025;SDS011;38041;40.058;18.328;2022-11-03T05:16:24;20.70;;;13.43;;
52025;SDS011;38041;40.058;18.328;2022-11-03T05:18:52;25.53;;;14.30;;
52025;SDS011;38041;40.058;18.328;2022-11-03T05:21:20;24.80;;;15.33;;
52025;SDS011;38041;40.058;18.328;2022-11-03T05:23:51;25.00;;;15.47;;
52025;SDS011;38041;40.058;18.328;2022-11-03T05:26:36;21.53;;;12.47;;
52025;SDS011;38041;40.058;18.328;2022-11-03T05:29:14;20.93;;;12.53;;
52025;SDS011;38041;40.058;18.328;2022-11-03T05:31:43;12.50;;;8.47;;
52025;SDS011;38041;40.058;18.328;2022-11-03T05:34:18;20.50;;;8.10;;
52025;SDS011;38041;40.058;18.328;2022-11-03T05:41:46;22.40;;;8.30;;
52025;SDS011;38041;40.058;18.328;2022-11-03T05:47:03;15.97;;;8.00;;
52025;SDS011;38041;40.058;18.328;2022-11-03T05:49:35;18.27;;;7.60;;
52025;SDS011;38041;40.058;18.328;2022-11-03T05:52:03;12.07;;;7.27;;
52025;SDS011;38041;40.058;18.328;2022-11-03T05:54:32;10.27;;;6.63;;
52025;SDS011;38041;40.058;18.328;2022-11-03T05:57:01;17.47;;;10.67;;
52025;SDS011;38041;40.058;18.328;2022-11-03T05:59:28;17.30;;;8.50;;
52025;SDS011;38041;40.058;18.328;2022-11-03T06:01:58;17.67;;;8.87;;
52025;SDS011;38041;40.058;18.328;2022-11-03T06:04:35;14.27;;;9.23;;
52025;SDS011;38041;40.058;18.328;2022-11-03T06:07:15;12.17;;;8.50;;
52025;SDS011;38041;40.058;18.328;2022-11-03T06:09:46;16.80;;;10.57;;
52025;SDS011;38041;40.058;18.328;2022-11-03T06:12:15;16.97;;;8.77;;
52025;SDS011;38041;40.058;18.328;2022-11-03T06:14:44;9.40;;;6.97;;
52025;SDS011;38041;40.058;18.328;2022-11-03T06:17:17;11.23;;;7.97;;
52025;SDS011;38041;40.058;18.328;2022-11-03T06:22:30;14.60;;;8.07;;
52025;SDS011;38041;40.058;18.328;2022-11-03T06:25:13;12.93;;;8.73;;
52025;SDS011;38041;40.058;18.328;2022-11-03T06:27:43;14.87;;;7.97;;
52025;SDS011;38041;40.058;18.328;2022-11-03T06:32:38;19.20;;;9.33;;
52025;SDS011;38041;40.058;18.328;2022-11-03T06:35:07;17.30;;;9.40;;
52025;SDS011;38041;40.058;18.328;2022-11-03T06:37:36;17.57;;;10.07;;
52025;SDS011;38041;40.058;18.328;2022-11-03T06:42:37;13.27;;;8.77;;
52025;SDS011;38041;40.058;18.328;2022-11-03T06:45:40;15.67;;;9.07;;
52025;SDS011;38041;40.058;18.328;2022-11-03T06:47:59;12.93;;;9.33;;
52025;SDS011;38041;40.058;18.328;2022-11-03T06:50:29;13.50;;;8.03;;
52025;SDS011;38041;40.058;18.328;2022-11-03T06:52:58;12.67;;;9.13;;
52025;SDS011;38041;40.058;18.328;2022-11-03T06:55:30;12.57;;;8.30;;
52025;SDS011;38041;40.058;18.328;2022-11-03T06:58:01;10.17;;;7.50;;
52025;SDS011;38041;40.058;18.328;2022-11-03T07:00:30;10.27;;;6.87;;
52025;SDS011;38041;40.058;18.328;2022-11-03T07:03:08;16.57;;;8.57;;
52025;SDS011;38041;40.058;18.328;2022-11-03T07:05:36;12.97;;;6.90;;
52025;SDS011;38041;40.058;18.328;2022-11-03T07:08:48;8.97;;;6.13;;
52025;SDS011;38041;40.058;18.328;2022-11-03T07:11:00;11.60;;;8.00;;
52025;SDS011;38041;40.058;18.328;2022-11-03T07:13:28;16.50;;;8.83;;
52025;SDS011;38041;40.058;18.328;2022-11-03T07:15:57;22.23;;;9.10;;
52025;SDS011;38041;40.058;18.328;2022-11-03T07:18:35;14.57;;;8.60;;
52025;SDS011;38041;40.058;18.328;2022-11-03T07:23:50;14.18;;;9.25;;
52025;SDS011;38041;40.058;18.328;2022-11-03T07:26:18;15.35;;;8.05;;
52025;SDS011;38041;40.058;18.328;2022-11-03T07:28:46;12.75;;;9.68;;
52025;SDS011;38041;40.058;18.328;2022-11-03T07:31:21;13.63;;;9.18;;
52025;SDS011;38041;40.058;18.328;2022-11-03T07:33:49;19.73;;;10.15;;
52025;SDS011;38041;40.058;18.328;2022-11-03T07:36:21;22.23;;;10.18;;
52025;SDS011;38041;40.058;18.328;2022-11-03T07:38:51;18.58;;;9.65;;
52025;SDS011;38041;40.058;18.328;2022-11-03T07:41:20;17.77;;;9.25;;
52025;SDS011;38041;40.058;18.328;2022-11-03T07:43:57;10.88;;;8.15;;
52025;SDS011;38041;40.058;18.328;2022-11-03T07:46:25;13.15;;;8.18;;
52025;SDS011;38041;40.058;18.328;2022-11-03T07:48:57;12.45;;;6.72;;
52025;SDS011;38041;40.058;18.328;2022-11-03T07:53:54;15.02;;;7.78;;
52025;SDS011;38041;40.058;18.328;2022-11-03T07:56:26;12.35;;;7.32;;
52025;SDS011;38041;40.058;18.328;2022-11-03T07:59:16;12.85;;;7.60;;
52025;SDS011;38041;40.058;18.328;2022-11-03T08:01:43;12.27;;;8.23;;
52025;SDS011;38041;40.058;18.328;2022-11-03T08:04:12;15.88;;;8.40;;
52025;SDS011;38041;40.058;18.328;2022-11-03T08:06:43;17.20;;;8.13;;
52025;SDS011;38041;40.058;18.328;2022-11-03T08:09:10;23.98;;;9.77;;
52025;SDS011;38041;40.058;18.328;2022-11-03T08:11:38;29.08;;;9.40;;
52025;SDS011;38041;40.058;18.328;2022-11-03T08:14:06;21.38;;;8.30;;
52025;SDS011;38041;40.058;18.328;2022-11-03T08:16:34;19.65;;;10.00;;
52025;SDS011;38041;40.058;18.328;2022-11-03T08:19:02;18.38;;;8.73;;
52025;SDS011;38041;40.058;18.328;2022-11-03T08:21:30;22.45;;;9.52;;
52025;SDS011;38041;40.058;18.328;2022-11-03T08:23:57;11.90;;;7.32;;
52025;SDS011;38041;40.058;18.328;2022-11-03T08:26:25;20.38;;;7.35;;
52025;SDS011;38041;40.058;18.328;2022-11-03T08:28:53;11.27;;;6.90;;
52025;SDS011;38041;40.058;18.328;2022-11-03T08:31:20;11.75;;;6.32;;
52025;SDS011;38041;40.058;18.328;2022-11-03T08:33:48;14.85;;;6.35;;
52025;SDS011;38041;40.058;18.328;2022-11-03T08:36:16;19.77;;;5.68;;
52025;SDS011;38041;40.058;18.328;2022-11-03T08:38:43;11.18;;;6.10;;
52025;SDS011;38041;40.058;18.328;2022-11-03T08:41:11;12.48;;;6.40;;
52025;SDS011;38041;40.058;18.328;2022-11-03T08:43:39;16.60;;;8.02;;
52025;SDS011;38041;40.058;18.328;2022-11-03T08:46:06;12.85;;;4.63;;
52025;SDS011;38041;40.058;18.328;2022-11-03T08:48:43;10.48;;;6.05;;
52025;SDS011;38041;40.058;18.328;2022-11-03T08:51:11;13.38;;;6.72;;
52025;SDS011;38041;40.058;18.328;2022-11-03T08:53:39;13.70;;;7.10;;
52025;SDS011;38041;40.058;18.328;2022-11-03T08:56:10;13.63;;;6.80;;
52025;SDS011;38041;40.058;18.328;2022-11-03T08:58:38;15.90;;;5.63;;
52025;SDS011;38041;40.058;18.328;2022-11-03T09:01:06;40.90;;;25.23;;
52025;SDS011;38041;40.058;18.328;2022-11-03T09:03:35;23.67;;;9.70;;
52025;SDS011;38041;40.058;18.328;2022-11-03T09:06:03;29.33;;;16.67;;
52025;SDS011;38041;40.058;18.328;2022-11-03T09:08:31;31.05;;;22.27;;
52025;SDS011;38041;40.058;18.328;2022-11-03T09:11:19;19.60;;;13.68;;
52025;SDS011;38041;40.058;18.328;2022-11-03T09:13:46;19.52;;;6.07;;
52025;SDS011;38041;40.058;18.328;2022-11-03T09:16:14;14.85;;;6.95;;
52025;SDS011;38041;40.058;18.328;2022-11-03T09:18:42;60.22;;;41.72;;
52025;SDS011;38041;40.058;18.328;2022-11-03T09:21:11;36.90;;;24.85;;
52025;SDS011;38041;40.058;18.328;2022-11-03T09:23:40;23.67;;;13.85;;
52025;SDS011;38041;40.058;18.328;2022-11-03T09:26:08;65.30;;;42.15;;
52025;SDS011;38041;40.058;18.328;2022-11-03T09:28:35;100.85;;;72.68;;
52025;SDS011;38041;40.058;18.328;2022-11-03T09:31:03;43.53;;;29.38;;
52025;SDS011;38041;40.058;18.328;2022-11-03T09:33:31;19.85;;;10.18;;
52025;SDS011;38041;40.058;18.328;2022-11-03T09:35:58;21.45;;;13.95;;
52025;SDS011;38041;40.058;18.328;2022-11-03T09:38:27;20.98;;;15.45;;
52025;SDS011;38041;40.058;18.328;2022-11-03T09:40:55;30.85;;;22.23;;
52025;SDS011;38041;40.058;18.328;2022-11-03T09:43:23;23.60;;;14.75;;
52025;SDS011;38041;40.058;18.328;2022-11-03T09:45:51;27.05;;;20.00;;
52025;SDS011;38041;40.058;18.328;2022-11-03T09:48:19;12.57;;;5.50;;
52025;SDS011;38041;40.058;18.328;2022-11-03T09:50:47;16.55;;;8.85;;
52025;SDS011;38041;40.058;18.328;2022-11-03T09:53:17;19.58;;;11.68;;
52025;SDS011;38041;40.058;18.328;2022-11-03T09:55:45;12.10;;;6.93;;
52025;SDS011;38041;40.058;18.328;2022-11-03T09:58:14;34.38;;;25.38;;
52025;SDS011;38041;40.058;18.328;2022-11-03T10:00:41;16.60;;;11.25;;
52025;SDS011;38041;40.058;18.328;2022-11-03T10:03:13;19.55;;;12.75;;
52025;SDS011;38041;40.058;18.328;2022-11-03T10:05:41;8.88;;;3.45;;
52025;SDS011;38041;40.058;18.328;2022-11-03T10:08:10;16.42;;;11.10;;
52025;SDS011;38041;40.058;18.328;2022-11-03T10:10:42;43.70;;;30.13;;
52025;SDS011;38041;40.058;18.328;2022-11-03T10:13:10;116.32;;;90.40;;
52025;SDS011;38041;40.058;18.328;2022-11-03T10:15:44;49.60;;;39.63;;
52025;SDS011;38041;40.058;18.328;2022-11-03T10:18:11;15.65;;;8.05;;
52025;SDS011;38041;40.058;18.328;2022-11-03T10:20:39;12.20;;;7.13;;
52025;SDS011;38041;40.058;18.328;2022-11-03T10:23:07;85.07;;;60.20;;
52025;SDS011;38041;40.058;18.328;2022-11-03T10:25:42;42.15;;;30.70;;
52025;SDS011;38041;40.058;18.328;2022-11-03T10:28:20;31.92;;;17.13;;
52025;SDS011;38041;40.058;18.328;2022-11-03T10:30:48;22.50;;;13.45;;
52025;SDS011;38041;40.058;18.328;2022-11-03T10:33:36;32.30;;;15.30;;
52025;SDS011;38041;40.058;18.328;2022-11-03T10:38:32;13.85;;;10.00;;
52025;SDS011;38041;40.058;18.328;2022-11-03T10:41:14;35.17;;;25.00;;
52025;SDS011;38041;40.058;18.328;2022-11-03T10:43:42;20.80;;;10.82;;
52025;SDS011;38041;40.058;18.328;2022-11-03T10:46:20;13.43;;;8.68;;
52025;SDS011;38041;40.058;18.328;2022-11-03T10:51:38;65.93;;;51.53;;
52025;SDS011;38041;40.058;18.328;2022-11-03T10:54:10;29.42;;;24.52;;
52025;SDS011;38041;40.058;18.328;2022-11-03T10:56:39;5.53;;;2.40;;
52025;SDS011;38041;40.058;18.328;2022-11-03T10:59:08;4.90;;;2.25;;
52025;SDS011;38041;40.058;18.328;2022-11-03T11:01:36;20.85;;;7.90;;
52025;SDS011;38041;40.058;18.328;2022-11-03T11:04:03;39.40;;;28.45;;
52025;SDS011;38041;40.058;18.328;2022-11-03T11:06:31;16.15;;;10.13;;
52025;SDS011;38041;40.058;18.328;2022-11-03T11:09:00;10.35;;;2.75;;
52025;SDS011;38041;40.058;18.328;2022-11-03T11:11:28;33.70;;;24.05;;
52025;SDS011;38041;40.058;18.328;2022-11-03T11:16:46;18.52;;;5.68;;
52025;SDS011;38041;40.058;18.328;2022-11-03T11:19:14;40.53;;;28.17;;
52025;SDS011;38041;40.058;18.328;2022-11-03T11:24:10;4.80;;;2.03;;
52025;SDS011;38041;40.058;18.328;2022-11-03T11:26:38;38.70;;;23.15;;
52025;SDS011;38041;40.058;18.328;2022-11-03T11:31:41;53.53;;;26.45;;
52025;SDS011;38041;40.058;18.328;2022-11-03T11:42:04;18.35;;;12.63;;
52025;SDS011;38041;40.058;18.328;2022-11-03T11:50:13;8.23;;;3.00;;
52025;SDS011;38041;40.058;18.328;2022-11-03T11:55:04;10.38;;;5.30;;
52025;SDS011;38041;40.058;18.328;2022-11-03T11:57:32;16.13;;;11.07;;
52025;SDS011;38041;40.058;18.328;2022-11-03T12:00:01;13.52;;;9.75;;
52025;SDS011;38041;40.058;18.328;2022-11-03T12:02:37;7.85;;;3.17;;
52025;SDS011;38041;40.058;18.328;2022-11-03T12:05:05;11.35;;;4.78;;
52025;SDS011;38041;40.058;18.328;2022-11-03T12:07:43;29.73;;;17.65;;
52025;SDS011;38041;40.058;18.328;2022-11-03T12:10:13;12.23;;;6.07;;
52025;SDS011;38041;40.058;18.328;2022-11-03T12:12:41;20.10;;;13.70;;
52025;SDS011;38041;40.058;18.328;2022-11-03T12:17:55;12.88;;;6.55;;
52025;SDS011;38041;40.058;18.328;2022-11-03T12:20:33;28.45;;;6.30;;
52025;SDS011;38041;40.058;18.328;2022-11-03T12:23:01;7.47;;;3.30;;
52025;SDS011;38041;40.058;18.328;2022-11-03T12:25:33;18.05;;;9.23;;
52025;SDS011;38041;40.058;18.328;2022-11-03T12:28:01;29.05;;;4.57;;
52025;SDS011;38041;40.058;18.328;2022-11-03T12:30:29;8.85;;;1.88;;
52025;SDS011;38041;40.058;18.328;2022-11-03T12:32:58;9.20;;;1.75;;
52025;SDS011;38041;40.058;18.328;2022-11-03T12:35:26;7.13;;;2.35;;
52025;SDS011;38041;40.058;18.328;2022-11-03T12:37:54;9.10;;;1.52;;
52025;SDS011;38041;40.058;18.328;2022-11-03T12:40:21;11.27;;;2.13;;
52025;SDS011;38041;40.058;18.328;2022-11-03T12:42:49;9.10;;;2.72;;
52025;SDS011;38041;40.058;18.328;2022-11-03T12:45:16;22.63;;;7.80;;
52025;SDS011;38041;40.058;18.328;2022-11-03T12:47:44;139.20;;;41.85;;
52025;SDS011;38041;40.058;18.328;2022-11-03T12:50:12;79.05;;;27.85;;
52025;SDS011;38041;40.058;18.328;2022-11-03T12:52:39;16.48;;;3.45;;
52025;SDS011;38041;40.058;18.328;2022-11-03T12:55:07;22.92;;;6.60;;
52025;SDS011;38041;40.058;18.328;2022-11-03T12:57:35;11.73;;;3.75;;
52025;SDS011;38041;40.058;18.328;2022-11-03T13:00:02;10.73;;;3.95;;
52025;SDS011;38041;40.058;18.328;2022-11-03T13:02:31;39.30;;;13.52;;
52025;SDS011;38041;40.058;18.328;2022-11-03T13:05:00;14.80;;;2.88;;
52025;SDS011;38041;40.058;18.328;2022-11-03T13:07:27;23.15;;;7.97;;
52025;SDS011;38041;40.058;18.328;2022-11-03T13:09:59;22.30;;;3.17;;
52025;SDS011;38041;40.058;18.328;2022-11-03T13:12:26;16.88;;;3.72;;
52025;SDS011;38041;40.058;18.328;2022-11-03T13:14:58;18.83;;;3.55;;
52025;SDS011;38041;40.058;18.328;2022-11-03T13:17:26;26.27;;;6.22;;
52025;SDS011;38041;40.058;18.328;2022-11-03T13:19:57;53.40;;;13.07;;
52025;SDS011;38041;40.058;18.328;2022-11-03T13:22:25;28.98;;;4.65;;
52025;SDS011;38041;40.058;18.328;2022-11-03T13:24:52;9.23;;;2.30;;
52025;SDS011;38041;40.058;18.328;2022-11-03T13:27:20;30.60;;;5.88;;
52025;SDS011;38041;40.058;18.328;2022-11-03T13:29:48;28.83;;;7.75;;
52025;SDS011;38041;40.058;18.328;2022-11-03T13:32:15;17.50;;;2.85;;
52025;SDS011;38041;40.058;18.328;2022-11-03T13:34:43;7.10;;;2.30;;
52025;SDS011;38041;40.058;18.328;2022-11-03T13:37:10;11.82;;;2.10;;
52025;SDS011;38041;40.058;18.328;2022-11-03T13:39:38;10.70;;;3.03;;
52025;SDS011;38041;40.058;18.328;2022-11-03T13:42:06;7.93;;;2.42;;
52025;SDS011;38041;40.058;18.328;2022-11-03T13:44:33;64.22;;;4.03;;
52025;SDS011;38041;40.058;18.328;2022-11-03T13:47:01;19.30;;;3.53;;
52025;SDS011;38041;40.058;18.328;2022-11-03T13:49:30;14.88;;;2.25;;
52025;SDS011;38041;40.058;18.328;2022-11-03T13:52:17;7.72;;;2.17;;
52025;SDS011;38041;40.058;18.328;2022-11-03T13:54:45;10.77;;;4.43;;
52025;SDS011;38041;40.058;18.328;2022-11-03T13:57:33;10.05;;;2.83;;
52025;SDS011;38041;40.058;18.328;2022-11-03T14:00:20;9.00;;;2.35;;
52025;SDS011;38041;40.058;18.328;2022-11-03T14:02:48;23.80;;;17.58;;
52025;SDS011;38041;40.058;18.328;2022-11-03T14:05:36;6.07;;;2.00;;
52025;SDS011;38041;40.058;18.328;2022-11-03T14:08:04;9.65;;;4.20;;
52025;SDS011;38041;40.058;18.328;2022-11-03T14:10:32;9.88;;;2.28;;
52025;SDS011;38041;40.058;18.328;2022-11-03T14:12:59;18.00;;;3.38;;
52025;SDS011;38041;40.058;18.328;2022-11-03T14:15:27;21.48;;;3.17;;
52025;SDS011;38041;40.058;18.328;2022-11-03T14:17:55;13.20;;;5.40;;
52025;SDS011;38041;40.058;18.328;2022-11-03T14:20:22;5.63;;;1.90;;
52025;SDS011;38041;40.058;18.328;2022-11-03T14:22:50;9.02;;;2.47;;
52025;SDS011;38041;40.058;18.328;2022-11-03T14:25:18;10.23;;;2.95;;
52025;SDS011;38041;40.058;18.328;2022-11-03T14:27:47;15.40;;;10.52;;
52025;SDS011;38041;40.058;18.328;2022-11-03T14:30:16;8.38;;;3.88;;
52025;SDS011;38041;40.058;18.328;2022-11-03T14:32:44;11.48;;;4.93;;
52025;SDS011;38041;40.058;18.328;2022-11-03T14:35:12;5.82;;;2.30;;
52025;SDS011;38041;40.058;18.328;2022-11-03T14:37:39;10.75;;;3.15;;
52025;SDS011;38041;40.058;18.328;2022-11-03T14:40:08;7.38;;;3.30;;
52025;SDS011;38041;40.058;18.328;2022-11-03T14:42:56;7.22;;;4.20;;
52025;SDS011;38041;40.058;18.328;2022-11-03T14:45:23;14.77;;;9.30;;
52025;SDS011;38041;40.058;18.328;2022-11-03T14:47:52;12.98;;;3.75;;
52025;SDS011;38041;40.058;18.328;2022-11-03T14:50:19;7.55;;;4.20;;
52025;SDS011;38041;40.058;18.328;2022-11-03T14:52:47;13.50;;;5.18;;
52025;SDS011;38041;40.058;18.328;2022-11-03T14:55:15;11.93;;;4.22;;
52025;SDS011;38041;40.058;18.328;2022-11-03T14:57:42;26.08;;;12.95;;
52025;SDS011;38041;40.058;18.328;2022-11-03T15:00:10;43.15;;;35.35;;
52025;SDS011;38041;40.058;18.328;2022-11-03T15:02:38;15.52;;;11.23;;
52025;SDS011;38041;40.058;18.328;2022-11-03T15:05:05;13.68;;;8.00;;
52025;SDS011;38041;40.058;18.328;2022-11-03T15:07:53;19.52;;;14.65;;
52025;SDS011;38041;40.058;18.328;2022-11-03T15:10:21;9.82;;;3.47;;
52025;SDS011;38041;40.058;18.328;2022-11-03T15:12:48;11.35;;;3.20;;
52025;SDS011;38041;40.058;18.328;2022-11-03T15:15:16;11.40;;;8.07;;
52025;SDS011;38041;40.058;18.328;2022-11-03T15:17:44;34.38;;;15.60;;
52025;SDS011;38041;40.058;18.328;2022-11-03T15:20:11;42.70;;;29.38;;
52025;SDS011;38041;40.058;18.328;2022-11-03T15:22:39;31.15;;;14.27;;
52025;SDS011;38041;40.058;18.328;2022-11-03T15:25:27;20.65;;;11.27;;
52025;SDS011;38041;40.058;18.328;2022-11-03T15:27:55;20.83;;;8.48;;
52025;SDS011;38041;40.058;18.328;2022-11-03T15:30:23;16.00;;;6.15;;
52025;SDS011;38041;40.058;18.328;2022-11-03T15:32:51;14.50;;;5.60;;
52025;SDS011;38041;40.058;18.328;2022-11-03T15:35:18;11.70;;;3.20;;
52025;SDS011;38041;40.058;18.328;2022-11-03T15:37:46;12.80;;;5.50;;
52025;SDS011;38041;40.058;18.328;2022-11-03T15:40:15;9.82;;;5.70;;
52025;SDS011;38041;40.058;18.328;2022-11-03T15:42:43;19.08;;;9.18;;
52025;SDS011;38041;40.058;18.328;2022-11-03T15:45:11;18.02;;;7.13;;
52025;SDS011;38041;40.058;18.328;2022-11-03T15:47:39;28.33;;;13.80;;
52025;SDS011;38041;40.058;18.328;2022-11-03T15:50:07;17.60;;;6.03;;
52025;SDS011;38041;40.058;18.328;2022-11-03T15:52:35;19.42;;;9.10;;